Historyczne dane pomiarowe

Dodano dane terminowe – wersja testowa.

Dane z okresu 1951-2019

Wersja bazy: 1.34 [2019-03-16, lista zmian], aktualizacja planowana na 2019-04-15

Dane meteo z obszaru Polski uzyskane na podstawie danych udostępnionych przez Instytut Meteorologii i Gospodarki Wodnej – Państwowy Instytut Badawczy.

 

Wybierz Datę:    

       

TemperaturaWilgotnośćWiatrCiśnienieOpadyŚniegCzas trwania zjawisk
 Stacja t tx tn tng RH VA  wxwx mslp ppp RRR   cm mm wxwxwxwxwxwxwx
1961-08-14 14.0 19.5 6.6- 79.3- 2.7 2.0---- 0.0------------
1961-08-13 13.8 17.6 11.8- 79.0- 4.3 2.3---- 0.0------------
1961-08-12 17.2 21.9 13.8- 88.8- 7.7 1.0---- 3.6------------
1961-08-11 17.7 23.0 15.3- 95.0- 7.7 1.0---- 9.3------------
1961-08-10 19.2 24.6 14.0- 74.3- 7.3 2.0---- 14.0------------
1961-08-09 20.2 27.2 15.0- 86.0- 6.7 2.0---- 0.1------------
1961-08-08 16.8 21.7 9.9- 82.5- 6.0 1.3---- 0.0------------
1961-08-07 16.7 20.8 15.1- 99.0- 8.0 1.3---- 20.4------------
1961-08-06 22.2 28.8 13.1- 80.5- 3.7 2.0---- 18.2------------
1961-08-05 16.4 21.4 12.1- 87.3- 4.7 2.3---- 0.0------------
1961-08-04 14.6 18.8 6.6- 80.5- 6.0 2.0---- 1.4------------
1961-08-03 15.1 20.6 12.9- 86.5- 6.3 1.7---- 8.2------------
1961-08-02 18.3 24.0 8.0- 82.5- 6.0 1.3---- 5.6------------
1961-08-01 13.2 14.8 10.9- 95.0- 8.0 5.3---- 0.4------------
1961-07-31 13.9 17.2 11.4- 95.3- 7.7 2.3---- 11.8------------
1961-07-30 13.6 17.4 9.6- 90.5- 8.0 1.3---- 13.3------------
1961-07-29 14.4 19.2 11.9- 83.8- 6.0 1.3---- 0.3------------
1961-07-28 15.0 18.8 13.0- 94.3- 8.0 1.3---- 12.2------------
1961-07-27 19.0 23.4 14.4- 72.3- 7.3 3.0---- 0.0------------
1961-07-26 16.0 19.7 10.7- 84.5- 7.7 2.0---- 0.3------------
1961-07-25 13.6 17.5 7.4- 87.3- 7.7 2.7---- 1.2------------
1961-07-24 14.6 19.1 9.7- 81.0- 6.3 3.0---- 0.0------------
1961-07-23 14.4 17.0 12.1- 88.3- 7.7 2.3---- 1.6------------
1961-07-22 15.0 20.0 11.3- 88.8- 7.3 3.0---- 1.0------------
1961-07-21 14.2 18.4 9.3- 91.8- 7.3 1.3---- 8.6------------
1961-07-20 16.0 22.8 10.0- 80.5- 3.7 0.7---- 0.0------------
1961-07-19 15.3 21.3 9.7- 85.0- 6.7 1.7---- 0.4------------
1961-07-18 14.6 18.5 10.6- 85.8- 7.3 2.3---- 0.0------------
1961-07-17 16.0 22.5 7.3- 82.0- 6.0 1.0---- 0.0------------
1961-07-16 13.2 16.5 9.5- 94.0- 5.7 1.3---- 11.7------------
1961-07-15 15.9 21.2 8.8- 82.8- 3.7 1.3---- 0.3------------
1961-07-14 14.3 23.6 12.8- 78.0- 7.7 4.3---- 0.0------------
1961-07-13 23.0 29.2 13.2- 70.0- 5.0 4.3---- 12.3------------
1961-07-12 18.1 24.4 12.5- 84.5- 4.7 1.7---- 0.0------------
1961-07-11 15.0 21.1 7.5- 75.5- 7.0 2.7---- 6.5------------
1961-07-10 14.0 19.2 10.0- 74.5- 7.3 4.0---- 0.0------------
1961-07-09 16.5 24.0 9.1- 72.5- 5.0 4.7---- 1.4------------
1961-07-08 15.6 20.2 9.0- 71.0- 5.7 1.7---- 0.0------------
1961-07-07 14.0 17.5 7.4- 64.8- 6.3 3.3---- 0.0------------
1961-07-06 12.5 17.0 6.5- 77.5- 6.0 3.3---- 0.0------------
1961-07-05 14.0 17.9 12.6- 69.5- 7.3 5.0---- 0.0------------
1961-07-04 17.6 25.4 14.6- 76.8- 4.7 3.3---- 4.2------------
1961-07-03 24.8 31.8 11.1- 52.5- 1.3 1.7---- 0.0------------
1961-07-02 22.2 29.5 10.9- 52.5- 0.0 1.0---- 0.0------------
1961-07-01 19.6 25.6 9.1- 69.5- 1.0 1.0---- 0.0------------
1961-06-30 19.2 25.3 8.3- 65.0- 0.0 2.0---- 0.0------------
1961-06-29 15.0 18.3 8.3- 77.5- 4.7 3.3---- 0.0------------
1961-06-28 15.3 19.0 12.8- 68.5- 5.0 4.7---- 0.3------------
1961-06-27 22.8 32.6 14.1- 76.5- 4.7 2.3---- 20.5------------
1961-06-26 23.6 28.4 13.1- 52.5- 0.7 2.0---- 0.0------------
1961-06-25 21.4 27.9 12.5- 63.3- 4.0 4.0---- 0.0------------
1961-06-24 17.8 22.0 11.9- 66.3- 6.7 3.0---- 0.0------------
1961-06-23 18.1 24.3 14.1- 69.3- 4.3 3.0---- 0.0------------
1961-06-22 16.3 21.4 6.9- 69.0- 2.7 1.7---- 1.2------------
1961-06-21 14.6 21.6 6.1- 75.0- 5.7 2.3---- 1.2------------
1961-06-20 14.1 19.3 9.1- 64.8- 3.3 3.7---- 0.0------------
1961-06-19 16.8 22.2 14.3- 61.5- 2.3 3.3---- 0.0------------
1961-06-18 20.4 26.3 14.2- 73.5- 4.7 2.7---- 0.2------------
1961-06-17 16.7 22.2 8.5- 75.3- 6.0 3.0---- 0.0------------
1961-06-16 12.8 16.6 11.0- 84.5- 6.3 2.7---- 0.0------------
277.7 ms

 

Źródłem pochodzenia danych jest Instytut Meteorologii i Gospodarki Wodnej – Państwowy Instytut Badawczy. Dane Instytutu Meteorologii i Gospodarki Wodnej – Państwowego Instytutu Badawczego zostały przetworzone.

Dane źródłowe można odnaleźć na stronie https://dane.imgw.pl